createdAt,value
2023-03-29T00:00:49.690Z,997.00
2023-03-29T00:01:49.661Z,996.93
2023-03-29T00:02:49.733Z,996.99
2023-03-29T00:03:49.753Z,996.95
2023-03-29T00:04:49.667Z,996.90
2023-03-29T00:05:49.689Z,996.90
2023-03-29T00:06:49.649Z,996.91
2023-03-29T00:07:49.685Z,996.89
2023-03-29T00:08:49.654Z,996.89
2023-03-29T00:09:49.626Z,996.92
2023-03-29T00:10:49.607Z,996.85
2023-03-29T00:11:49.603Z,996.87
2023-03-29T00:12:49.607Z,996.79
2023-03-29T00:13:49.625Z,996.80
2023-03-29T00:14:49.583Z,996.80
2023-03-29T00:15:49.587Z,996.80
2023-03-29T00:16:49.633Z,996.75
2023-03-29T00:17:49.717Z,996.75
2023-03-29T00:18:49.577Z,996.74
2023-03-29T00:19:49.585Z,996.76
2023-03-29T00:20:49.554Z,996.69
2023-03-29T00:21:49.567Z,996.70
2023-03-29T00:22:49.617Z,996.66
2023-03-29T00:23:50.578Z,996.68
2023-03-29T00:24:49.564Z,996.67
2023-03-29T00:25:49.534Z,996.62
2023-03-29T00:26:49.514Z,996.62
2023-03-29T00:27:49.514Z,996.61
2023-03-29T00:28:49.519Z,996.59
2023-03-29T00:29:49.505Z,996.53
2023-03-29T00:30:50.487Z,996.56
2023-03-29T00:31:49.533Z,996.58
2023-03-29T00:32:49.548Z,996.56
2023-03-29T00:33:49.497Z,996.56
2023-03-29T00:34:49.478Z,996.55
2023-03-29T00:35:49.497Z,996.52
2023-03-29T00:36:49.506Z,996.46
2023-03-29T00:37:49.461Z,996.47
2023-03-29T00:38:49.434Z,996.44
2023-03-29T00:39:49.473Z,996.44
2023-03-29T00:40:49.431Z,996.42
2023-03-29T00:41:49.428Z,996.39
2023-03-29T00:42:49.415Z,996.40
2023-03-29T00:43:49.420Z,996.41
2023-03-29T00:44:49.417Z,996.43
2023-03-29T00:45:49.391Z,996.38
2023-03-29T00:46:49.393Z,996.43
2023-03-29T00:47:49.458Z,996.41
2023-03-29T00:48:49.432Z,996.37
2023-03-29T00:49:49.368Z,996.38
2023-03-29T00:50:49.404Z,996.40
2023-03-29T00:51:49.373Z,996.32
2023-03-29T00:52:49.347Z,996.37
2023-03-29T00:53:49.414Z,996.38
2023-03-29T00:54:50.324Z,996.28
2023-03-29T00:55:49.377Z,996.33
2023-03-29T00:56:49.343Z,996.24
2023-03-29T00:57:49.335Z,996.29
2023-03-29T00:58:49.327Z,996.29
2023-03-29T00:59:49.299Z,996.30
2023-03-29T01:00:49.336Z,996.22
2023-03-29T01:01:49.332Z,996.28
2023-03-29T01:02:49.414Z,996.26
2023-03-29T01:03:49.353Z,996.21
2023-03-29T01:04:49.272Z,996.22
2023-03-29T01:05:49.298Z,996.21
2023-03-29T01:06:49.322Z,996.22
2023-03-29T01:07:49.282Z,996.22
2023-03-29T01:08:49.252Z,996.16
2023-03-29T01:09:49.251Z,996.11
2023-03-29T01:10:49.269Z,996.10
2023-03-29T01:11:49.243Z,996.15
2023-03-29T01:12:49.271Z,996.12
2023-03-29T01:13:49.224Z,996.15
2023-03-29T01:14:49.232Z,996.15
2023-03-29T01:15:49.253Z,996.12
2023-03-29T01:16:49.242Z,996.12
2023-03-29T01:17:49.256Z,996.09
2023-03-29T01:18:49.201Z,996.09
2023-03-29T01:19:49.189Z,996.03
2023-03-29T01:20:49.193Z,996.02
2023-03-29T01:21:49.225Z,996.01
2023-03-29T01:22:49.190Z,996.07
2023-03-29T01:23:49.169Z,996.04
2023-03-29T01:24:49.158Z,996.01
2023-03-29T01:25:49.166Z,995.98
2023-03-29T01:26:49.182Z,995.95
2023-03-29T01:27:49.135Z,995.91
2023-03-29T01:28:49.145Z,995.88
2023-03-29T01:29:49.127Z,995.86
2023-03-29T01:30:49.124Z,995.80
2023-03-29T01:31:49.171Z,995.77
2023-03-29T01:32:49.153Z,995.81
2023-03-29T01:33:49.103Z,995.78
2023-03-29T01:34:49.106Z,995.80
2023-03-29T01:35:49.124Z,995.77
2023-03-29T01:36:49.089Z,995.81
2023-03-29T01:37:49.117Z,995.73
2023-03-29T01:38:49.075Z,995.75
2023-03-29T01:39:49.069Z,995.74
2023-03-29T01:40:49.039Z,995.74
2023-03-29T01:41:49.063Z,995.74
2023-03-29T01:42:49.173Z,995.71
2023-03-29T01:43:50.060Z,995.75
2023-03-29T01:44:49.034Z,995.74
2023-03-29T01:45:49.039Z,995.68
2023-03-29T01:46:49.013Z,995.74
2023-03-29T01:47:49.055Z,995.72
2023-03-29T01:48:49.031Z,995.74
2023-03-29T01:49:49.020Z,995.72
2023-03-29T01:50:48.998Z,995.71
2023-03-29T01:51:48.988Z,995.71
2023-03-29T01:52:48.972Z,995.73
2023-03-29T01:53:49.015Z,995.68
2023-03-29T01:54:49.012Z,995.67
2023-03-29T01:55:48.959Z,995.75
2023-03-29T01:56:48.979Z,995.75
2023-03-29T01:57:48.953Z,995.68
2023-03-29T01:58:48.998Z,995.69
2023-03-29T01:59:48.930Z,995.67
2023-03-29T02:00:48.946Z,995.68
2023-03-29T02:01:49.128Z,995.64
2023-03-29T02:02:48.978Z,995.66
2023-03-29T02:03:48.955Z,995.59
2023-03-29T02:04:48.948Z,995.57
2023-03-29T02:05:48.892Z,995.56
2023-03-29T02:06:48.909Z,995.53
2023-03-29T02:07:48.892Z,995.51
2023-03-29T02:08:48.888Z,995.52
2023-03-29T02:09:48.870Z,995.45
2023-03-29T02:10:48.884Z,995.47
2023-03-29T02:11:48.858Z,995.43
2023-03-29T02:12:48.865Z,995.41
2023-03-29T02:13:48.864Z,995.45
2023-03-29T02:14:48.871Z,995.37
2023-03-29T02:15:48.870Z,995.37
2023-03-29T02:16:48.829Z,995.38
2023-03-29T02:17:48.853Z,995.36
2023-03-29T02:18:48.815Z,995.34
2023-03-29T02:19:48.830Z,995.29
2023-03-29T02:20:48.818Z,995.31
2023-03-29T02:21:48.828Z,995.32
2023-03-29T02:22:48.790Z,995.25
2023-03-29T02:23:48.800Z,995.22
2023-03-29T02:24:48.805Z,995.26
2023-03-29T02:25:48.798Z,995.28
2023-03-29T02:26:48.778Z,995.23
2023-03-29T02:27:48.787Z,995.24
2023-03-29T02:28:48.748Z,995.22
2023-03-29T02:29:48.748Z,995.23
2023-03-29T02:30:48.840Z,995.23
2023-03-29T02:31:48.791Z,995.23
2023-03-29T02:32:48.824Z,995.24
2023-03-29T02:33:48.767Z,995.19
2023-03-29T02:34:48.733Z,995.25
2023-03-29T02:35:48.792Z,995.26
2023-03-29T02:36:48.741Z,995.28
2023-03-29T02:37:48.704Z,995.30
2023-03-29T02:38:48.718Z,995.26
2023-03-29T02:39:48.680Z,995.22
2023-03-29T02:40:48.753Z,995.18
2023-03-29T02:41:48.677Z,995.20
2023-03-29T02:42:48.692Z,995.15
2023-03-29T02:43:48.692Z,995.14
2023-03-29T02:44:48.660Z,995.14
2023-03-29T02:45:48.655Z,995.12
2023-03-29T02:46:48.680Z,995.10
2023-03-29T02:47:48.683Z,995.06
2023-03-29T02:48:48.675Z,995.07
2023-03-29T02:49:48.638Z,995.04
2023-03-29T02:50:48.628Z,995.04
2023-03-29T02:51:48.627Z,994.99
2023-03-29T02:52:48.605Z,995.03
2023-03-29T02:53:48.681Z,994.92
2023-03-29T02:54:48.608Z,994.95
2023-03-29T02:55:48.590Z,994.91
2023-03-29T02:56:48.647Z,994.83
2023-03-29T02:57:48.575Z,994.88
2023-03-29T02:58:48.620Z,994.87
2023-03-29T02:59:48.577Z,994.90
2023-03-29T03:00:48.569Z,994.87
2023-03-29T03:01:48.610Z,994.83
2023-03-29T03:02:48.621Z,994.75
2023-03-29T03:03:48.662Z,994.75
2023-03-29T03:04:48.570Z,994.78
2023-03-29T03:05:48.524Z,994.77
2023-03-29T03:06:48.529Z,994.77
2023-03-29T03:07:48.511Z,994.82
2023-03-29T03:08:48.542Z,994.81
2023-03-29T03:09:49.553Z,994.83
2023-03-29T03:10:48.501Z,994.77
2023-03-29T03:11:48.498Z,994.79
2023-03-29T03:12:48.472Z,994.73
2023-03-29T03:13:48.546Z,994.78
2023-03-29T03:14:48.511Z,994.81
2023-03-29T03:15:48.473Z,994.71
2023-03-29T03:16:48.493Z,994.73
2023-03-29T03:17:48.481Z,994.70
2023-03-29T03:18:48.450Z,994.75
2023-03-29T03:19:48.463Z,994.69
2023-03-29T03:20:48.463Z,994.75
2023-03-29T03:21:48.440Z,994.70
2023-03-29T03:22:48.413Z,994.71
2023-03-29T03:23:48.417Z,994.73
2023-03-29T03:24:48.392Z,994.75
2023-03-29T03:25:48.416Z,994.73
2023-03-29T03:26:48.409Z,994.74
2023-03-29T03:27:48.414Z,994.76
2023-03-29T03:28:48.412Z,994.72
2023-03-29T03:29:48.426Z,994.73
2023-03-29T03:30:48.383Z,994.71
2023-03-29T03:31:48.458Z,994.63
2023-03-29T03:32:48.400Z,994.60
2023-03-29T03:33:48.368Z,994.62
2023-03-29T03:34:48.331Z,994.56
2023-03-29T03:35:48.404Z,994.62
2023-03-29T03:36:48.386Z,994.60
2023-03-29T03:37:49.392Z,994.60
2023-03-29T03:38:48.337Z,994.61
2023-03-29T03:39:48.311Z,994.62
2023-03-29T03:40:48.311Z,994.59
2023-03-29T03:41:48.320Z,994.58
2023-03-29T03:42:48.339Z,994.55
2023-03-29T03:43:48.301Z,994.62
2023-03-29T03:44:48.265Z,994.64
2023-03-29T03:45:48.332Z,994.63
2023-03-29T03:46:48.275Z,994.68
2023-03-29T03:47:48.290Z,994.69
2023-03-29T03:48:48.245Z,994.70
2023-03-29T03:49:48.249Z,994.71
2023-03-29T03:50:48.224Z,994.66
2023-03-29T03:51:48.971Z,994.62
2023-03-29T03:52:48.244Z,994.61
2023-03-29T03:53:48.230Z,994.61
2023-03-29T03:54:48.217Z,994.60
2023-03-29T03:55:48.216Z,994.55
2023-03-29T03:56:48.213Z,994.60
2023-03-29T03:57:48.184Z,994.57
2023-03-29T03:58:48.221Z,994.55
2023-03-29T03:59:48.194Z,994.53
2023-03-29T04:00:49.208Z,994.58
2023-03-29T04:01:48.180Z,994.55
2023-03-29T04:02:48.384Z,994.52
2023-03-29T04:03:48.386Z,994.55
2023-03-29T04:04:48.141Z,994.51
2023-03-29T04:05:48.151Z,994.49
2023-03-29T04:06:48.137Z,994.54
2023-03-29T04:07:48.127Z,994.54
2023-03-29T04:08:48.124Z,994.59
2023-03-29T04:09:48.134Z,994.56
2023-03-29T04:10:48.117Z,994.59
2023-03-29T04:11:48.109Z,994.53
2023-03-29T04:12:48.106Z,994.53
2023-03-29T04:13:48.091Z,994.47
2023-03-29T04:14:48.128Z,994.49
2023-03-29T04:15:48.132Z,994.50
2023-03-29T04:16:48.055Z,994.54
2023-03-29T04:17:48.179Z,994.56
2023-03-29T04:18:48.105Z,994.56
2023-03-29T04:19:48.113Z,994.56
2023-03-29T04:20:48.081Z,994.48
2023-03-29T04:21:48.025Z,994.49
2023-03-29T04:22:48.030Z,994.49
2023-03-29T04:23:48.129Z,994.51
2023-03-29T04:24:48.019Z,994.48
2023-03-29T04:25:48.042Z,994.52
2023-03-29T04:26:48.013Z,994.52
2023-03-29T04:27:48.010Z,994.48
2023-03-29T04:28:47.979Z,994.51
2023-03-29T04:29:47.976Z,994.45
2023-03-29T04:30:48.060Z,994.44
2023-03-29T04:31:48.043Z,994.40
2023-03-29T04:32:48.002Z,994.43
2023-03-29T04:33:48.065Z,994.39
2023-03-29T04:34:47.965Z,994.39
2023-03-29T04:35:47.967Z,994.29
2023-03-29T04:36:47.981Z,994.40
2023-03-29T04:37:47.947Z,994.40
2023-03-29T04:38:48.163Z,994.37
2023-03-29T04:39:47.920Z,994.37
2023-03-29T04:40:47.947Z,994.30
2023-03-29T04:41:47.952Z,994.32
2023-03-29T04:42:47.911Z,994.25
2023-03-29T04:43:47.956Z,994.17
2023-03-29T04:44:48.006Z,994.22
2023-03-29T04:45:47.915Z,994.24
2023-03-29T04:46:47.964Z,994.21
2023-03-29T04:47:47.943Z,994.22
2023-03-29T04:48:48.010Z,994.20
2023-03-29T04:49:47.868Z,994.21
2023-03-29T04:50:47.856Z,994.19
2023-03-29T04:51:47.892Z,994.20
2023-03-29T04:52:47.854Z,994.19
2023-03-29T04:53:47.895Z,994.21
2023-03-29T04:54:47.853Z,994.18
2023-03-29T04:55:47.885Z,994.19
2023-03-29T04:56:47.879Z,994.19
2023-03-29T04:57:47.825Z,994.14
2023-03-29T04:58:47.874Z,994.16
2023-03-29T04:59:47.824Z,994.20
2023-03-29T05:00:47.796Z,994.14
2023-03-29T05:01:47.818Z,994.15
2023-03-29T05:02:47.853Z,994.13
2023-03-29T05:03:47.849Z,994.11
2023-03-29T05:04:47.762Z,994.03
2023-03-29T05:05:47.753Z,994.05
2023-03-29T05:06:47.761Z,994.03
2023-03-29T05:07:47.804Z,994.10
2023-03-29T05:08:47.802Z,994.12
2023-03-29T05:09:47.757Z,994.09
2023-03-29T05:10:47.792Z,994.14
2023-03-29T05:11:47.739Z,994.07
2023-03-29T05:12:47.726Z,994.00
2023-03-29T05:13:47.748Z,994.06
2023-03-29T05:14:47.734Z,994.08
2023-03-29T05:15:47.800Z,994.09
2023-03-29T05:16:47.721Z,994.11
2023-03-29T05:17:47.730Z,994.11
2023-03-29T05:18:47.688Z,994.04
2023-03-29T05:19:47.762Z,994.10
2023-03-29T05:20:47.699Z,994.02
2023-03-29T05:21:47.651Z,994.07
2023-03-29T05:22:47.675Z,994.05
2023-03-29T05:23:47.642Z,993.99
2023-03-29T05:24:47.673Z,994.02
2023-03-29T05:25:47.694Z,994.09
2023-03-29T05:26:47.667Z,994.00
2023-03-29T05:27:47.651Z,994.05
2023-03-29T05:28:47.668Z,994.07
2023-03-29T05:29:47.622Z,994.04
2023-03-29T05:30:47.652Z,993.98
2023-03-29T05:31:47.632Z,994.05
2023-03-29T05:32:47.738Z,994.00
2023-03-29T05:33:47.584Z,994.01
2023-03-29T05:34:47.587Z,993.97
2023-03-29T05:35:47.615Z,994.00
2023-03-29T05:36:47.599Z,993.97
2023-03-29T05:37:47.579Z,993.92
2023-03-29T05:38:47.576Z,993.90
2023-03-29T05:39:47.541Z,993.80
2023-03-29T05:40:47.557Z,993.79
2023-03-29T05:41:47.558Z,993.83
2023-03-29T05:42:47.533Z,993.79
2023-03-29T05:43:47.560Z,993.71
2023-03-29T05:44:47.509Z,993.71
2023-03-29T05:45:47.569Z,993.67
2023-03-29T05:46:47.549Z,993.65
2023-03-29T05:47:47.621Z,993.65
2023-03-29T05:48:47.500Z,993.70
2023-03-29T05:49:47.498Z,993.66
2023-03-29T05:50:47.498Z,993.68
2023-03-29T05:51:47.531Z,993.69
2023-03-29T05:52:47.492Z,993.67
2023-03-29T05:53:47.516Z,993.64
2023-03-29T05:54:47.480Z,993.69
2023-03-29T05:55:47.458Z,993.64
2023-03-29T05:56:47.481Z,993.66
2023-03-29T05:57:47.456Z,993.67
2023-03-29T05:58:47.451Z,993.69
2023-03-29T05:59:47.456Z,993.63
2023-03-29T06:00:47.441Z,993.69
2023-03-29T06:01:47.508Z,993.69
2023-03-29T06:02:47.544Z,993.66
2023-03-29T06:03:47.763Z,993.72
2023-03-29T06:04:47.562Z,993.61
2023-03-29T06:05:49.546Z,993.67
2023-03-29T06:06:48.448Z,993.65
2023-03-29T06:07:47.403Z,993.70
2023-03-29T06:08:47.446Z,993.63
2023-03-29T06:09:47.470Z,993.67
2023-03-29T06:10:47.370Z,993.61
2023-03-29T06:11:47.361Z,993.62
2023-03-29T06:12:47.344Z,993.63
2023-03-29T06:13:47.459Z,993.65
2023-03-29T06:14:47.346Z,993.63
2023-03-29T06:15:47.350Z,993.58
2023-03-29T06:16:47.348Z,993.62
2023-03-29T06:17:47.500Z,993.64
2023-03-29T06:18:47.343Z,993.65
2023-03-29T06:19:47.312Z,993.66
2023-03-29T06:20:47.295Z,993.66
2023-03-29T06:21:47.358Z,993.75
2023-03-29T06:22:47.335Z,993.66
2023-03-29T06:23:47.309Z,993.67
2023-03-29T06:24:47.283Z,993.70
2023-03-29T06:25:47.294Z,993.67
2023-03-29T06:26:47.260Z,993.74
2023-03-29T06:27:47.271Z,993.75
2023-03-29T06:28:48.677Z,993.74
2023-03-29T06:29:47.269Z,993.73
2023-03-29T06:30:47.321Z,993.78
2023-03-29T06:31:47.333Z,993.72
2023-03-29T06:32:47.237Z,993.74
2023-03-29T06:33:47.262Z,993.77
2023-03-29T06:34:47.306Z,993.70
2023-03-29T06:35:47.297Z,993.76
2023-03-29T06:36:47.251Z,993.67
2023-03-29T06:37:47.213Z,993.71
2023-03-29T06:38:47.272Z,993.70
2023-03-29T06:39:47.218Z,993.74
2023-03-29T06:40:47.196Z,993.74
2023-03-29T06:41:47.223Z,993.82
2023-03-29T06:42:47.187Z,993.82
2023-03-29T06:43:47.176Z,993.85
2023-03-29T06:44:47.183Z,993.88
2023-03-29T06:45:47.291Z,993.89
2023-03-29T06:46:47.195Z,993.86
2023-03-29T06:47:47.216Z,993.91
2023-03-29T06:48:47.157Z,993.92
2023-03-29T06:49:47.160Z,993.94
2023-03-29T06:50:47.139Z,993.89
2023-03-29T06:51:47.128Z,993.87
2023-03-29T06:52:47.136Z,993.90
2023-03-29T06:53:47.110Z,993.89
2023-03-29T06:54:48.156Z,993.94
2023-03-29T06:55:47.152Z,993.99
2023-03-29T06:56:47.174Z,993.84
2023-03-29T06:57:47.088Z,993.85
2023-03-29T06:58:47.116Z,993.90
2023-03-29T06:59:47.094Z,993.87
2023-03-29T07:00:47.121Z,993.92
2023-03-29T07:01:47.176Z,993.91
2023-03-29T07:02:47.154Z,993.93
2023-03-29T07:03:47.058Z,993.95
2023-03-29T07:04:47.146Z,994.02
2023-03-29T07:05:47.065Z,993.95
2023-03-29T07:06:47.050Z,993.98
2023-03-29T07:07:47.060Z,994.00
2023-03-29T07:08:47.030Z,993.99
2023-03-29T07:09:47.027Z,994.07
2023-03-29T07:10:47.027Z,994.04
2023-03-29T07:11:47.038Z,994.07
2023-03-29T07:12:47.032Z,994.05
2023-03-29T07:13:47.026Z,994.07
2023-03-29T07:14:47.044Z,994.04
2023-03-29T07:15:47.023Z,993.96
2023-03-29T07:16:47.421Z,993.97
2023-03-29T07:17:47.002Z,994.14
2023-03-29T07:18:47.026Z,994.06
2023-03-29T07:19:46.992Z,994.04
2023-03-29T07:20:46.977Z,993.97
2023-03-29T07:21:46.995Z,994.00
2023-03-29T07:22:46.963Z,993.94
2023-03-29T07:23:47.030Z,993.97
2023-03-29T07:24:46.939Z,993.97
2023-03-29T07:25:46.964Z,994.02
2023-03-29T07:27:00.174Z,994.01
2023-03-29T07:27:49.196Z,994.03
2023-03-29T07:28:46.943Z,993.97
2023-03-29T07:29:46.928Z,993.98
2023-03-29T07:30:46.910Z,993.93
2023-03-29T07:31:46.913Z,993.97
2023-03-29T07:32:47.040Z,993.98
2023-03-29T07:33:46.956Z,993.96
2023-03-29T07:34:46.897Z,994.01
2023-03-29T07:35:46.902Z,993.98
2023-03-29T07:36:47.888Z,994.05
2023-03-29T07:37:46.911Z,994.04
2023-03-29T07:38:46.921Z,994.06
2023-03-29T07:39:46.895Z,994.01
2023-03-29T07:40:46.863Z,994.06
2023-03-29T07:41:46.873Z,993.97
2023-03-29T07:42:46.894Z,994.04
2023-03-29T07:43:46.861Z,993.97
2023-03-29T07:44:46.906Z,993.96
2023-03-29T07:45:46.960Z,994.04
2023-03-29T07:46:46.823Z,993.98
2023-03-29T07:47:46.900Z,994.07
2023-03-29T07:48:47.844Z,994.01
2023-03-29T07:49:46.848Z,994.05
2023-03-29T07:50:46.838Z,994.08
2023-03-29T07:51:46.816Z,994.03
2023-03-29T07:52:46.827Z,994.01
2023-03-29T07:53:46.794Z,994.02
2023-03-29T07:54:46.813Z,993.98
2023-03-29T07:55:47.289Z,993.93
2023-03-29T07:56:47.864Z,994.05
2023-03-29T07:57:46.793Z,994.06
2023-03-29T07:58:46.772Z,994.04
2023-03-29T07:59:46.766Z,994.00
2023-03-29T08:00:46.964Z,994.00
2023-03-29T08:01:46.763Z,994.07
2023-03-29T08:02:46.780Z,994.11
2023-03-29T08:03:46.802Z,994.02
2023-03-29T08:04:46.855Z,994.05
2023-03-29T08:05:46.786Z,994.02
2023-03-29T08:06:46.753Z,994.01
2023-03-29T08:07:46.748Z,993.96
2023-03-29T08:08:46.730Z,993.96
2023-03-29T08:09:46.738Z,993.89
2023-03-29T08:10:46.759Z,993.98
2023-03-29T08:11:46.749Z,993.98
2023-03-29T08:12:46.733Z,993.96
2023-03-29T08:13:46.695Z,993.97
2023-03-29T08:14:46.723Z,994.00
2023-03-29T08:15:46.724Z,993.94
2023-03-29T08:16:46.738Z,994.00
2023-03-29T08:17:46.713Z,993.99
2023-03-29T08:18:46.705Z,993.93
2023-03-29T08:19:51.294Z,993.93
2023-03-29T08:20:47.683Z,993.99
2023-03-29T08:21:46.671Z,993.97
2023-03-29T08:22:46.653Z,993.94
2023-03-29T08:23:46.716Z,993.96
2023-03-29T08:24:46.671Z,993.94
2023-03-29T08:25:46.714Z,993.90
2023-03-29T08:26:46.657Z,993.94
2023-03-29T08:27:46.646Z,993.92
2023-03-29T08:28:46.803Z,993.92
2023-03-29T08:29:46.631Z,993.95
2023-03-29T08:30:46.650Z,993.90
2023-03-29T08:31:46.621Z,993.95
2023-03-29T08:32:49.298Z,994.01
2023-03-29T08:33:47.664Z,993.95
2023-03-29T08:34:46.611Z,994.00
2023-03-29T08:35:46.628Z,993.97
2023-03-29T08:36:46.631Z,993.92
2023-03-29T08:37:46.586Z,993.90
2023-03-29T08:38:46.617Z,993.92
2023-03-29T08:39:46.597Z,993.98
2023-03-29T08:40:46.628Z,993.89
2023-03-29T08:41:46.579Z,993.99
2023-03-29T08:42:46.585Z,993.89
2023-03-29T08:43:46.576Z,993.96
2023-03-29T08:44:46.566Z,994.01
2023-03-29T08:45:48.989Z,994.04
2023-03-29T08:46:46.630Z,994.09
2023-03-29T08:47:46.572Z,994.06
2023-03-29T08:48:46.568Z,994.09
2023-03-29T08:49:46.550Z,994.05
2023-03-29T08:50:46.551Z,994.10
2023-03-29T08:51:46.576Z,994.14
2023-03-29T08:52:46.538Z,994.12
2023-03-29T08:53:46.510Z,994.14
2023-03-29T08:54:46.536Z,994.06
2023-03-29T08:55:46.520Z,994.09
2023-03-29T08:56:46.826Z,994.14
2023-03-29T08:57:46.521Z,994.16
2023-03-29T08:58:46.499Z,994.12
2023-03-29T08:59:46.507Z,994.17
2023-03-29T09:00:46.499Z,994.23
2023-03-29T09:01:48.581Z,994.14
2023-03-29T09:02:47.595Z,994.04
2023-03-29T09:03:46.632Z,994.12
2023-03-29T09:04:46.527Z,994.23
2023-03-29T09:05:46.537Z,994.13
2023-03-29T09:06:46.512Z,994.15
2023-03-29T09:07:46.552Z,994.12
2023-03-29T09:08:46.460Z,994.13
2023-03-29T09:09:46.482Z,994.14
2023-03-29T09:10:46.444Z,994.12
2023-03-29T09:11:46.460Z,994.09
2023-03-29T09:12:46.521Z,994.00
2023-03-29T09:13:46.416Z,994.03
2023-03-29T09:14:46.421Z,994.01
2023-03-29T09:15:46.430Z,993.98
2023-03-29T09:16:46.443Z,993.96
2023-03-29T09:17:48.343Z,993.98
2023-03-29T09:18:46.437Z,993.91
2023-03-29T09:19:46.440Z,993.87
2023-03-29T09:20:46.381Z,993.84
2023-03-29T09:21:46.403Z,993.91
2023-03-29T09:22:46.421Z,993.92
2023-03-29T09:23:46.355Z,993.94
2023-03-29T09:24:46.427Z,993.85
2023-03-29T09:25:53.604Z,993.86
2023-03-29T09:26:48.372Z,993.83
2023-03-29T09:27:46.385Z,993.88
2023-03-29T09:28:46.352Z,993.90
2023-03-29T09:29:46.393Z,993.82
2023-03-29T09:30:46.337Z,993.86
2023-03-29T09:31:46.402Z,993.81
2023-03-29T09:32:46.340Z,993.78
2023-03-29T09:33:46.319Z,993.85
2023-03-29T09:34:46.423Z,993.84
2023-03-29T09:35:46.385Z,993.87
2023-03-29T09:36:46.355Z,993.94
2023-03-29T09:37:46.302Z,993.88
2023-03-29T09:38:46.312Z,993.88
2023-03-29T09:39:46.302Z,993.89
2023-03-29T09:40:46.325Z,993.85
2023-03-29T09:41:46.287Z,993.88
2023-03-29T09:42:46.294Z,993.88
2023-03-29T09:43:46.281Z,993.85
2023-03-29T09:44:46.270Z,993.92
2023-03-29T09:45:46.322Z,993.78
2023-03-29T09:46:46.281Z,993.75
2023-03-29T09:47:46.284Z,993.72
2023-03-29T09:48:46.287Z,993.75
2023-03-29T09:49:46.233Z,993.75
2023-03-29T09:50:46.243Z,993.70
2023-03-29T09:51:46.268Z,993.76
2023-03-29T09:52:46.248Z,993.67
2023-03-29T09:53:46.244Z,993.69
2023-03-29T09:54:46.208Z,993.62
2023-03-29T09:55:47.810Z,993.63
2023-03-29T09:56:46.267Z,993.64
2023-03-29T09:57:46.206Z,993.61
2023-03-29T09:58:46.211Z,993.61
2023-03-29T09:59:46.278Z,993.59
2023-03-29T10:00:46.281Z,993.58
2023-03-29T10:01:46.232Z,993.64
2023-03-29T10:02:46.248Z,993.64
2023-03-29T10:03:46.254Z,993.65
2023-03-29T10:04:46.222Z,993.60
2023-03-29T10:05:46.215Z,993.56
2023-03-29T10:06:46.163Z,993.51
2023-03-29T10:07:47.188Z,993.54
2023-03-29T10:08:46.215Z,993.56
2023-03-29T10:09:46.172Z,993.57
2023-03-29T10:10:46.182Z,993.50
2023-03-29T10:11:46.146Z,993.48
2023-03-29T10:12:46.167Z,993.53
2023-03-29T10:13:46.134Z,993.53
2023-03-29T10:14:46.142Z,993.46
2023-03-29T10:15:47.121Z,993.49
2023-03-29T10:16:46.370Z,993.50
2023-03-29T10:17:46.170Z,993.47
2023-03-29T10:18:46.100Z,993.46
2023-03-29T10:19:46.129Z,993.43
2023-03-29T10:20:46.111Z,993.51
2023-03-29T10:21:46.099Z,993.51
2023-03-29T10:22:46.079Z,993.55
2023-03-29T10:23:46.111Z,993.52
2023-03-29T10:24:47.159Z,993.51
2023-03-29T10:25:46.081Z,993.49
2023-03-29T10:26:46.104Z,993.52
2023-03-29T10:27:46.059Z,993.53
2023-03-29T10:28:46.045Z,993.45
2023-03-29T10:29:46.061Z,993.48
2023-03-29T10:30:46.126Z,993.52
2023-03-29T10:31:46.067Z,993.51
2023-03-29T10:32:46.158Z,993.45
2023-03-29T10:33:46.037Z,993.44
2023-03-29T10:34:46.084Z,993.39
2023-03-29T10:35:46.083Z,993.45
2023-03-29T10:36:46.027Z,993.46
2023-03-29T10:37:46.009Z,993.40
2023-03-29T10:38:46.662Z,993.37
2023-03-29T10:39:46.008Z,993.48
2023-03-29T10:40:46.001Z,993.41
2023-03-29T10:41:45.981Z,993.40
2023-03-29T10:42:46.006Z,993.39
2023-03-29T10:43:45.969Z,993.40
2023-03-29T10:44:45.965Z,993.40
2023-03-29T10:45:46.093Z,993.44
2023-03-29T10:46:45.945Z,993.42
2023-03-29T10:47:45.979Z,993.49
2023-03-29T10:48:45.984Z,993.51
2023-03-29T10:49:45.944Z,993.42
2023-03-29T10:50:45.949Z,993.44
2023-03-29T10:51:45.981Z,993.41
2023-03-29T10:52:45.904Z,993.43
2023-03-29T10:53:45.960Z,993.42
2023-03-29T10:54:45.898Z,993.32
2023-03-29T10:55:45.938Z,993.37
2023-03-29T10:56:45.986Z,993.38
2023-03-29T10:57:45.895Z,993.37
2023-03-29T10:58:45.889Z,993.29
2023-03-29T10:59:45.887Z,993.42
2023-03-29T11:00:45.877Z,993.40
2023-03-29T11:01:45.945Z,993.40
2023-03-29T11:02:45.941Z,993.33
2023-03-29T11:03:46.022Z,993.39
2023-03-29T11:04:45.853Z,993.45
2023-03-29T11:05:45.829Z,993.40
2023-03-29T11:06:45.857Z,993.45
2023-03-29T11:07:45.812Z,993.42
2023-03-29T11:08:45.877Z,993.41
2023-03-29T11:09:45.819Z,993.35
2023-03-29T11:10:45.804Z,993.39
2023-03-29T11:11:45.848Z,993.40
2023-03-29T11:12:45.805Z,993.33
2023-03-29T11:13:45.808Z,993.37
2023-03-29T11:14:45.790Z,993.34
2023-03-29T11:15:45.796Z,993.29
2023-03-29T11:16:45.789Z,993.28
2023-03-29T11:17:45.801Z,993.31
2023-03-29T11:18:45.803Z,993.36
2023-03-29T11:19:45.803Z,993.28
2023-03-29T11:20:45.836Z,993.35
2023-03-29T11:21:45.749Z,993.34
2023-03-29T11:22:45.769Z,993.36
2023-03-29T11:23:45.720Z,993.37
2023-03-29T11:24:45.778Z,993.37
2023-03-29T11:25:45.757Z,993.35
2023-03-29T11:26:45.710Z,993.35
2023-03-29T11:27:45.698Z,993.33
2023-03-29T11:28:45.701Z,993.28
2023-03-29T11:29:45.783Z,993.29
2023-03-29T11:30:45.685Z,993.33
2023-03-29T11:31:45.726Z,993.34
2023-03-29T11:32:45.721Z,993.33
2023-03-29T11:33:45.657Z,993.35
2023-03-29T11:34:45.664Z,993.34
2023-03-29T11:35:45.658Z,993.35
2023-03-29T11:36:45.623Z,993.40
2023-03-29T11:37:45.613Z,993.24
2023-03-29T11:38:45.590Z,993.22
2023-03-29T11:39:45.600Z,993.22
2023-03-29T11:40:45.640Z,993.15
2023-03-29T11:41:45.636Z,993.34
2023-03-29T11:42:45.569Z,993.29
2023-03-29T11:43:45.547Z,993.28
2023-03-29T11:44:46.486Z,993.28
2023-03-29T11:45:45.586Z,993.24
2023-03-29T11:46:45.602Z,993.31
2023-03-29T11:47:45.583Z,993.30
2023-03-29T11:48:45.522Z,993.31
2023-03-29T11:49:45.507Z,993.33
2023-03-29T11:50:45.501Z,993.29
2023-03-29T11:51:45.584Z,993.30
2023-03-29T11:52:45.486Z,993.36
2023-03-29T11:53:45.496Z,993.34
2023-03-29T11:54:45.495Z,993.26
2023-03-29T11:55:45.493Z,993.29
2023-03-29T11:56:45.557Z,993.25
2023-03-29T11:57:45.505Z,993.25
2023-03-29T11:58:45.475Z,993.22
2023-03-29T11:59:45.445Z,993.20
2023-03-29T12:00:45.532Z,993.11
2023-03-29T12:01:45.504Z,993.13
2023-03-29T12:02:45.620Z,993.10
2023-03-29T12:03:46.870Z,993.15
2023-03-29T12:04:46.427Z,993.14
2023-03-29T12:05:45.424Z,993.00
2023-03-29T12:06:45.440Z,993.07
2023-03-29T12:07:45.421Z,993.09
2023-03-29T12:08:45.391Z,993.05
2023-03-29T12:09:45.365Z,993.04
2023-03-29T12:10:45.382Z,993.13
2023-03-29T12:11:46.018Z,993.14
2023-03-29T12:12:45.350Z,993.12
2023-03-29T12:13:45.364Z,993.09
2023-03-29T12:14:45.322Z,993.03
2023-03-29T12:15:45.342Z,992.99
2023-03-29T12:16:45.365Z,992.98
2023-03-29T12:17:45.392Z,992.94
2023-03-29T12:18:45.386Z,993.04
2023-03-29T12:19:45.293Z,992.96
2023-03-29T12:20:45.295Z,992.99
2023-03-29T12:21:45.352Z,992.98
2023-03-29T12:22:45.301Z,992.97
2023-03-29T12:23:45.297Z,992.93
2023-03-29T12:24:45.262Z,992.92
2023-03-29T12:25:45.247Z,992.87
2023-03-29T12:26:45.258Z,992.92
2023-03-29T12:27:45.327Z,992.91
2023-03-29T12:28:45.271Z,992.92